createdAt,value
2022-08-11T00:01:52.393Z,22.09
2022-08-11T00:04:40.153Z,21.90
2022-08-11T00:07:28.462Z,21.82
2022-08-11T00:10:20.233Z,21.79
2022-08-11T00:13:08.274Z,21.75
2022-08-11T00:16:01.490Z,21.61
2022-08-11T00:18:52.255Z,21.55
2022-08-11T00:22:04.290Z,21.60
2022-08-11T00:24:52.626Z,21.58
2022-08-11T00:27:42.898Z,21.57
2022-08-11T00:30:39.506Z,21.44
2022-08-11T00:33:44.073Z,21.46
2022-08-11T00:36:46.033Z,21.42
2022-08-11T00:39:36.435Z,21.40
2022-08-11T00:43:01.956Z,21.42
2022-08-11T00:46:18.118Z,21.40
2022-08-11T00:49:37.049Z,21.40
2022-08-11T00:52:40.586Z,21.29
2022-08-11T00:55:56.150Z,21.30
2022-08-11T00:59:21.201Z,21.22
2022-08-11T01:02:43.057Z,20.82
2022-08-11T01:05:48.845Z,20.86
2022-08-11T01:08:58.199Z,20.98
2022-08-11T01:11:56.461Z,20.84
2022-08-11T01:14:58.636Z,20.73
2022-08-11T01:18:32.663Z,20.87
2022-08-11T01:21:38.156Z,20.93
2022-08-11T01:24:50.174Z,20.94
2022-08-11T01:27:59.158Z,20.93
2022-08-11T01:31:23.824Z,20.90
2022-08-11T01:34:35.325Z,20.71
2022-08-11T01:37:57.740Z,20.72
2022-08-11T01:40:53.765Z,20.72
2022-08-11T01:44:30.617Z,20.63
2022-08-11T01:47:53.275Z,20.66
2022-08-11T01:51:17.294Z,20.66
2022-08-11T01:54:13.179Z,20.65
2022-08-11T01:57:35.246Z,20.55
2022-08-11T02:00:31.339Z,20.52
2022-08-11T02:03:39.104Z,20.45
2022-08-11T02:06:56.848Z,20.48
2022-08-11T02:10:22.697Z,20.48
2022-08-11T02:13:44.868Z,20.51
2022-08-11T02:17:06.649Z,20.51
2022-08-11T02:20:31.456Z,20.47
2022-08-11T02:24:05.835Z,20.34
2022-08-11T02:26:53.536Z,20.26
2022-08-11T02:30:04.957Z,20.22
2022-08-11T02:33:24.812Z,20.28
2022-08-11T02:36:21.738Z,20.22
2022-08-11T02:39:12.964Z,20.13
2022-08-11T02:42:37.748Z,20.23
2022-08-11T02:45:54.724Z,20.21
2022-08-11T02:49:11.313Z,20.22
2022-08-11T02:52:25.869Z,20.22
2022-08-11T02:55:56.884Z,20.23
2022-08-11T02:59:22.914Z,20.37
2022-08-11T03:02:23.399Z,20.36
2022-08-11T03:05:20.967Z,20.32
2022-08-11T03:08:23.933Z,20.36
2022-08-11T03:11:56.017Z,20.27
2022-08-11T03:15:09.730Z,20.29
2022-08-11T03:18:11.937Z,20.17
2022-08-11T03:21:09.306Z,20.14
2022-08-11T03:24:10.954Z,20.05
2022-08-11T03:27:04.006Z,20.07
2022-08-11T03:30:11.562Z,20.02
2022-08-11T03:33:40.172Z,20.09
2022-08-11T03:37:15.693Z,19.98
2022-08-11T03:40:03.289Z,20.00
2022-08-11T03:43:00.896Z,20.08
2022-08-11T03:46:12.938Z,19.95
2022-08-11T03:49:23.177Z,19.92
2022-08-11T03:52:48.992Z,19.72
2022-08-11T03:56:13.808Z,19.92
2022-08-11T03:59:17.527Z,19.87
2022-08-11T04:02:42.110Z,19.88
2022-08-11T04:05:35.399Z,19.93
2022-08-11T04:08:50.849Z,19.81
2022-08-11T04:12:35.439Z,19.87
2022-08-11T04:16:11.609Z,19.82
2022-08-11T04:19:05.886Z,19.79
2022-08-11T04:22:28.889Z,19.78
2022-08-11T04:25:27.887Z,19.86
2022-08-11T04:28:43.106Z,19.84
2022-08-11T04:32:16.436Z,19.85
2022-08-11T04:35:28.401Z,19.77
2022-08-11T04:38:37.592Z,19.79
2022-08-11T04:42:18.874Z,19.80
2022-08-11T04:45:26.198Z,19.86
2022-08-11T04:49:11.447Z,19.83
2022-08-11T04:52:55.759Z,19.96
2022-08-11T04:56:19.750Z,19.95
2022-08-11T05:00:01.636Z,20.05
2022-08-11T05:03:12.859Z,19.98
2022-08-11T05:06:34.217Z,19.99
2022-08-11T05:09:45.330Z,20.07
2022-08-11T05:12:48.438Z,20.13
2022-08-11T05:16:05.778Z,20.17
2022-08-11T05:19:12.626Z,20.25
2022-08-11T05:22:34.274Z,20.35
2022-08-11T05:26:42.806Z,20.42
2022-08-11T05:29:21.505Z,20.51
2022-08-11T05:32:32.168Z,20.60
2022-08-11T05:36:00.413Z,20.56
2022-08-11T05:38:55.389Z,20.71
2022-08-11T05:42:01.512Z,20.74
2022-08-11T05:45:15.343Z,20.79
2022-08-11T05:48:22.849Z,20.90
2022-08-11T05:51:30.212Z,20.91
2022-08-11T05:54:36.859Z,20.94
2022-08-11T05:57:38.615Z,21.05
2022-08-11T06:00:43.459Z,21.11
2022-08-11T06:03:58.441Z,21.11
2022-08-11T06:07:01.345Z,21.15
2022-08-11T06:09:51.213Z,21.23
2022-08-11T06:12:40.752Z,21.26
2022-08-11T06:15:29.702Z,21.34
2022-08-11T06:18:18.350Z,21.35
2022-08-11T06:21:09.983Z,21.39
2022-08-11T06:23:59.061Z,21.44
2022-08-11T06:29:59.862Z,21.54
2022-08-11T06:32:55.398Z,21.56
2022-08-11T06:36:03.263Z,21.61
2022-08-11T06:39:21.870Z,21.63
2022-08-11T06:42:13.922Z,21.60
2022-08-11T06:45:08.252Z,21.67
2022-08-11T06:48:00.664Z,21.71
2022-08-11T06:51:11.283Z,21.77
2022-08-11T06:54:04.364Z,21.79
2022-08-11T06:57:29.254Z,21.80
2022-08-11T07:00:33.148Z,21.81
2022-08-11T07:03:22.223Z,21.94
2022-08-11T07:06:29.102Z,22.01
2022-08-11T07:10:12.425Z,22.03
2022-08-11T07:13:44.064Z,22.09
2022-08-11T07:16:30.886Z,22.12
2022-08-11T07:19:45.360Z,22.14
2022-08-11T07:22:52.197Z,22.26
2022-08-11T07:26:01.658Z,22.33
2022-08-11T07:28:55.243Z,22.34
2022-08-11T07:31:50.055Z,22.42
2022-08-11T07:34:42.914Z,22.48
2022-08-11T07:37:33.257Z,22.58
2022-08-11T07:40:24.644Z,22.73
2022-08-11T07:43:14.008Z,22.78
2022-08-11T07:46:23.161Z,22.84
2022-08-11T07:49:29.756Z,22.89
2022-08-11T07:52:30.301Z,22.96
2022-08-11T07:55:18.412Z,23.09
2022-08-11T07:58:25.589Z,23.13
2022-08-11T08:01:44.466Z,23.15
2022-08-11T08:04:51.825Z,23.27
2022-08-11T08:07:57.795Z,23.31
2022-08-11T08:11:04.390Z,23.31
2022-08-11T08:14:12.517Z,23.43
2022-08-11T08:17:18.554Z,23.54
2022-08-11T08:20:10.094Z,23.61
2022-08-11T08:23:00.624Z,23.71
2022-08-11T08:25:51.498Z,23.78
2022-08-11T08:28:39.605Z,23.86
2022-08-11T08:31:27.432Z,23.92
2022-08-11T08:34:16.369Z,23.94
2022-08-11T08:37:15.688Z,23.94
2022-08-11T08:40:15.209Z,24.08
2022-08-11T08:43:12.084Z,24.22
2022-08-11T08:46:00.024Z,24.28
2022-08-11T08:48:49.277Z,24.32
2022-08-11T08:51:54.850Z,24.41
2022-08-11T08:54:54.073Z,24.55
2022-08-11T08:57:44.853Z,24.59
2022-08-11T09:00:44.789Z,24.62
2022-08-11T09:04:04.180Z,24.69
2022-08-11T09:06:47.465Z,24.75
2022-08-11T09:09:43.318Z,24.74
2022-08-11T09:12:36.419Z,24.80
2022-08-11T09:15:28.293Z,24.87
2022-08-11T09:18:17.916Z,24.88
2022-08-11T09:21:05.622Z,24.96
2022-08-11T09:24:28.781Z,25.12
2022-08-11T09:27:16.277Z,25.11
2022-08-11T09:30:05.290Z,25.15
2022-08-11T09:33:00.385Z,25.15
2022-08-11T09:35:51.211Z,25.28
2022-08-11T09:38:57.619Z,25.30
2022-08-11T09:42:01.217Z,25.42
2022-08-11T09:44:53.134Z,25.55
2022-08-11T09:47:43.229Z,25.60
2022-08-11T09:50:32.788Z,25.57
2022-08-11T09:53:36.680Z,25.59
2022-08-11T09:56:44.352Z,25.60
2022-08-11T09:59:32.644Z,25.77
2022-08-11T10:02:27.833Z,25.86
2022-08-11T10:05:38.016Z,25.95
2022-08-11T10:08:30.389Z,26.06
2022-08-11T10:11:23.231Z,26.06
2022-08-11T10:14:33.947Z,26.16
2022-08-11T10:17:23.397Z,26.37
2022-08-11T10:20:12.614Z,26.43
2022-08-11T10:23:19.928Z,26.52
2022-08-11T10:26:26.688Z,26.59
2022-08-11T10:29:37.433Z,26.57
2022-08-11T10:32:58.351Z,26.50
2022-08-11T10:35:47.337Z,26.58
2022-08-11T10:38:35.803Z,26.62
2022-08-11T10:42:06.806Z,26.65
2022-08-11T10:44:53.191Z,26.72
2022-08-11T10:47:44.449Z,26.77
2022-08-11T10:50:56.654Z,26.75
2022-08-11T10:54:12.310Z,26.58
2022-08-11T10:57:19.221Z,27.00
2022-08-11T11:00:07.492Z,27.11
2022-08-11T11:03:22.437Z,27.16
2022-08-11T11:06:28.430Z,27.22
2022-08-11T11:09:29.841Z,27.13
2022-08-11T11:12:57.540Z,27.14
2022-08-11T11:16:06.350Z,27.38
2022-08-11T11:19:00.782Z,27.47
2022-08-11T11:21:53.580Z,27.38
2022-08-11T11:24:54.750Z,27.41
2022-08-11T11:27:56.048Z,27.46
2022-08-11T11:31:31.150Z,27.58
2022-08-11T11:34:22.005Z,27.45
2022-08-11T11:37:13.150Z,27.39
2022-08-11T11:40:01.026Z,27.50
2022-08-11T11:42:51.693Z,27.66
2022-08-11T11:45:41.988Z,27.62
2022-08-11T11:48:30.594Z,27.66
2022-08-11T11:51:18.426Z,27.78
2022-08-11T11:54:06.652Z,28.00
2022-08-11T11:57:20.017Z,28.16
2022-08-11T12:00:32.885Z,28.06
2022-08-11T12:03:21.949Z,28.00
2022-08-11T12:06:14.093Z,27.89
2022-08-11T12:09:01.528Z,27.98
2022-08-11T12:12:08.398Z,28.00
2022-08-11T12:14:56.152Z,28.10
2022-08-11T12:17:43.552Z,28.17
2022-08-11T12:20:33.883Z,28.22
2022-08-11T12:23:40.294Z,28.41
2022-08-11T12:26:47.445Z,28.64
2022-08-11T12:29:58.175Z,28.79
2022-08-11T12:32:45.942Z,28.67
2022-08-11T12:35:35.159Z,28.65
2022-08-11T12:38:29.741Z,28.69
2022-08-11T12:41:36.615Z,28.81
2022-08-11T12:44:46.674Z,28.88
2022-08-11T12:48:49.667Z,28.97
2022-08-11T12:52:00.886Z,28.95
2022-08-11T12:54:54.319Z,29.10
2022-08-11T12:58:06.920Z,29.11
2022-08-11T13:01:13.230Z,29.24
2022-08-11T13:04:21.814Z,29.48
2022-08-11T13:07:10.224Z,29.51
2022-08-11T13:09:57.760Z,29.52
2022-08-11T13:12:47.917Z,29.61
2022-08-11T13:15:38.931Z,29.57
2022-08-11T13:18:27.642Z,29.54
2022-08-11T13:21:20.326Z,29.69
2022-08-11T13:24:08.539Z,29.64
2022-08-11T13:26:57.965Z,29.69
2022-08-11T13:29:46.877Z,29.74
2022-08-11T13:32:34.726Z,29.67
2022-08-11T13:35:23.431Z,29.67
2022-08-11T13:38:27.067Z,29.72
2022-08-11T13:41:34.239Z,29.84
2022-08-11T13:44:25.876Z,29.92
2022-08-11T13:47:15.345Z,29.98
2022-08-11T13:50:02.754Z,30.10
2022-08-11T13:52:53.319Z,30.14
2022-08-11T13:55:52.239Z,30.18
2022-08-11T13:58:41.096Z,30.19
2022-08-11T14:02:20.482Z,30.25
2022-08-11T14:04:56.135Z,30.32
2022-08-11T14:07:58.994Z,30.25
2022-08-11T14:12:19.800Z,30.30
2022-08-11T14:14:23.357Z,30.38
2022-08-11T14:17:12.288Z,30.40
2022-08-11T14:20:38.575Z,30.39
2022-08-11T14:23:33.686Z,30.47
2022-08-11T14:26:29.132Z,30.62
2022-08-11T14:32:10.293Z,30.56
2022-08-11T14:34:58.669Z,30.52
2022-08-11T14:37:46.975Z,30.53
2022-08-11T14:40:53.328Z,30.58
2022-08-11T14:44:13.301Z,30.69
2022-08-11T14:47:05.778Z,30.76
2022-08-11T14:50:17.868Z,30.75
2022-08-11T14:53:14.241Z,30.65
2022-08-11T14:56:25.360Z,30.70
2022-08-11T14:59:13.264Z,30.66
2022-08-11T15:02:21.357Z,30.73
2022-08-11T15:05:09.071Z,30.85
2022-08-11T15:07:58.349Z,30.92
2022-08-11T15:10:48.135Z,30.88
2022-08-11T15:13:36.369Z,30.96
2022-08-11T15:16:43.462Z,31.02
2022-08-11T15:19:36.665Z,31.09
2022-08-11T15:22:47.682Z,31.08
2022-08-11T15:25:35.681Z,31.04
2022-08-11T15:28:43.520Z,31.01
2022-08-11T15:31:50.185Z,31.00
2022-08-11T15:35:03.593Z,31.02
2022-08-11T15:37:58.373Z,31.04
2022-08-11T15:41:07.770Z,31.10
2022-08-11T15:44:14.909Z,31.13
2022-08-11T15:47:05.329Z,31.14
2022-08-11T15:50:10.894Z,31.11
2022-08-11T15:53:07.713Z,31.06
2022-08-11T15:55:56.265Z,31.07
2022-08-11T15:59:40.963Z,31.06
2022-08-11T16:02:35.549Z,31.09
2022-08-11T16:05:25.091Z,31.02
2022-08-11T16:08:33.122Z,30.99
2022-08-11T16:11:22.254Z,30.99
2022-08-11T16:14:30.649Z,30.95
2022-08-11T16:17:19.961Z,30.91
2022-08-11T16:20:09.196Z,30.86
2022-08-11T16:23:02.441Z,30.80
2022-08-11T16:27:03.085Z,30.77
2022-08-11T16:29:00.604Z,30.77
2022-08-11T16:32:09.339Z,30.80
2022-08-11T16:35:27.957Z,30.76
2022-08-11T16:38:35.740Z,30.67
2022-08-11T16:41:44.391Z,30.69
2022-08-11T16:44:51.645Z,30.59
2022-08-11T16:48:02.804Z,30.51
2022-08-11T16:50:48.926Z,30.34
2022-08-11T16:53:54.908Z,30.30
2022-08-11T16:56:52.572Z,30.21
2022-08-11T16:59:39.921Z,30.16
2022-08-11T17:02:53.741Z,30.05
2022-08-11T17:06:18.996Z,30.03
2022-08-11T17:09:27.777Z,30.02
2022-08-11T17:12:34.448Z,30.00
2022-08-11T17:15:42.423Z,29.95
2022-08-11T17:18:40.778Z,29.90
2022-08-11T17:21:58.580Z,29.83
2022-08-11T17:24:47.414Z,29.78
2022-08-11T17:27:35.552Z,29.70
2022-08-11T17:30:43.586Z,29.67
2022-08-11T17:33:51.734Z,29.62
2022-08-11T17:36:45.072Z,29.61
2022-08-11T17:39:33.631Z,29.56
2022-08-11T17:42:41.698Z,29.53
2022-08-11T17:45:48.701Z,29.47
2022-08-11T17:48:47.683Z,29.44
2022-08-11T17:51:57.254Z,29.34
2022-08-11T17:55:06.117Z,29.26
2022-08-11T17:58:15.504Z,29.19
2022-08-11T18:01:09.412Z,29.16
2022-08-11T18:03:58.804Z,29.11
2022-08-11T18:06:47.751Z,29.06
2022-08-11T18:09:53.485Z,29.01
2022-08-11T18:13:00.509Z,28.94
2022-08-11T18:16:06.270Z,28.86
2022-08-11T18:19:12.842Z,28.77
2022-08-11T18:22:28.041Z,28.68
2022-08-11T18:25:43.275Z,28.61
2022-08-11T18:28:58.094Z,28.54
2022-08-11T18:32:08.402Z,28.42
2022-08-11T18:35:16.474Z,28.32
2022-08-11T18:38:25.289Z,28.25
2022-08-11T18:41:33.369Z,28.20
2022-08-11T18:44:44.414Z,28.11
2022-08-11T18:47:53.352Z,28.01
2022-08-11T18:51:29.950Z,27.90
2022-08-11T18:54:34.350Z,27.81
2022-08-11T18:57:49.778Z,27.74
2022-08-11T19:01:04.876Z,27.66
2022-08-11T19:04:17.272Z,27.57
2022-08-11T19:07:27.847Z,27.49
2022-08-11T19:10:34.540Z,27.43
2022-08-11T19:13:43.657Z,27.38
2022-08-11T19:16:52.549Z,27.30
2022-08-11T19:19:59.750Z,27.21
2022-08-11T19:23:07.913Z,27.15
2022-08-11T19:26:15.632Z,27.07
2022-08-11T19:30:12.489Z,26.96
2022-08-11T19:32:49.978Z,26.84
2022-08-11T19:35:56.453Z,26.75
2022-08-11T19:39:03.187Z,26.70
2022-08-11T19:42:09.610Z,26.63
2022-08-11T19:45:18.198Z,26.54
2022-08-11T19:48:32.542Z,26.42
2022-08-11T19:51:38.790Z,26.39
2022-08-11T19:54:48.802Z,26.36
2022-08-11T19:57:56.730Z,26.33
2022-08-11T20:01:03.092Z,26.27
2022-08-11T20:04:09.176Z,26.22
2022-08-11T20:07:16.149Z,26.13
2022-08-11T20:10:25.780Z,26.04
2022-08-11T20:13:32.914Z,25.95
2022-08-11T20:16:40.514Z,25.90
2022-08-11T20:19:55.587Z,25.84
2022-08-11T20:23:05.478Z,25.82
2022-08-11T20:26:30.289Z,25.74
2022-08-11T20:29:45.429Z,25.69
2022-08-11T20:32:51.835Z,25.64
2022-08-11T20:35:58.136Z,25.60
2022-08-11T20:39:05.156Z,25.58
2022-08-11T20:42:12.337Z,25.52
2022-08-11T20:45:23.459Z,25.41
2022-08-11T20:48:30.117Z,25.38
2022-08-11T20:51:38.799Z,25.33
2022-08-11T20:54:46.901Z,25.30
2022-08-11T20:58:04.088Z,25.25
2022-08-11T21:01:16.233Z,25.21
2022-08-11T21:04:26.569Z,25.14
2022-08-11T21:07:35.045Z,25.11
2022-08-11T21:10:50.531Z,25.07
2022-08-11T21:13:59.263Z,25.02
2022-08-11T21:17:27.532Z,24.98
2022-08-11T21:20:34.872Z,24.83
2022-08-11T21:23:43.171Z,24.80
2022-08-11T21:26:51.343Z,24.78
2022-08-11T21:29:58.231Z,24.74
2022-08-11T21:33:04.570Z,24.69
2022-08-11T21:36:10.644Z,24.63
2022-08-11T21:39:16.742Z,24.56
2022-08-11T21:42:25.420Z,24.50
2022-08-11T21:45:32.584Z,24.46
2022-08-11T21:48:38.958Z,24.40
2022-08-11T21:51:45.137Z,24.38
2022-08-11T21:54:51.298Z,24.28
2022-08-11T21:57:58.477Z,24.11
2022-08-11T22:01:04.644Z,23.91
2022-08-11T22:04:10.575Z,23.76
2022-08-11T22:07:17.666Z,23.71
2022-08-11T22:10:41.025Z,23.59
2022-08-11T22:14:02.973Z,23.52
2022-08-11T22:17:13.910Z,23.48
2022-08-11T22:20:20.562Z,23.38
2022-08-11T22:23:30.604Z,23.53
2022-08-11T22:26:47.405Z,23.56
2022-08-11T22:29:53.549Z,23.54
2022-08-11T22:33:00.113Z,23.51
2022-08-11T22:36:07.614Z,23.52
2022-08-11T22:39:16.911Z,23.49
2022-08-11T22:42:24.214Z,23.42
2022-08-11T22:45:39.941Z,23.30
2022-08-11T22:48:48.809Z,23.29
2022-08-11T22:51:56.148Z,23.15
2022-08-11T22:55:04.304Z,22.97
2022-08-11T22:58:12.535Z,22.96
2022-08-11T23:01:19.228Z,22.89
2022-08-11T23:04:25.912Z,22.89
2022-08-11T23:07:51.453Z,22.92
2022-08-11T23:10:58.669Z,22.82
2022-08-11T23:14:05.273Z,22.70
2022-08-11T23:17:11.747Z,22.74
2022-08-11T23:20:24.741Z,22.75
2022-08-11T23:23:34.734Z,22.66
2022-08-11T23:26:42.949Z,22.55
2022-08-11T23:29:52.989Z,22.31
2022-08-11T23:33:03.542Z,22.22
2022-08-11T23:36:10.027Z,22.24
2022-08-11T23:39:35.958Z,22.06
2022-08-11T23:42:41.862Z,21.98
2022-08-11T23:45:52.017Z,22.01
2022-08-11T23:48:57.942Z,22.16
2022-08-11T23:52:05.221Z,22.06
2022-08-11T23:55:11.345Z,22.08
2022-08-11T23:58:17.318Z,22.12
